createdAt,value
2023-03-20T00:00:25.516Z,100219.83
2023-03-20T00:04:55.509Z,100215.45
2023-03-20T00:09:07.414Z,100219.25
2023-03-20T00:13:19.933Z,100219.33
2023-03-20T00:17:27.742Z,100218.75
2023-03-20T00:21:36.053Z,100219.35
2023-03-20T00:25:45.524Z,100218.09
2023-03-20T00:29:53.777Z,100215.95
2023-03-20T00:34:03.945Z,100213.67
2023-03-20T00:38:12.122Z,100211.42
2023-03-20T00:42:23.564Z,100214.06
2023-03-20T00:46:32.998Z,100216.54
2023-03-20T00:50:41.304Z,100215.54
2023-03-20T00:54:49.675Z,100213.45
2023-03-20T00:58:57.942Z,100210.36
2023-03-20T01:03:11.869Z,100207.59
2023-03-20T01:07:19.728Z,100207.03
2023-03-20T01:11:28.149Z,100209.20
2023-03-20T01:15:37.998Z,100207.64
2023-03-20T01:19:46.369Z,100209.00
2023-03-20T01:23:54.272Z,100213.23
2023-03-20T01:28:02.215Z,100214.42
2023-03-20T01:32:12.605Z,100213.68
2023-03-20T01:36:21.845Z,100212.20
2023-03-20T01:40:36.052Z,100214.74
2023-03-20T01:44:44.121Z,100215.20
2023-03-20T01:49:10.697Z,100215.95
2023-03-20T01:53:21.240Z,100213.91
2023-03-20T01:57:29.457Z,100214.83
2023-03-20T02:01:37.649Z,100214.85
2023-03-20T02:05:45.983Z,100218.33
2023-03-20T02:09:55.329Z,100215.52
2023-03-20T02:14:04.574Z,100215.85
2023-03-20T02:18:12.338Z,100215.55
2023-03-20T02:22:43.437Z,100216.06
2023-03-20T02:27:10.515Z,100214.96
2023-03-20T02:32:06.432Z,100211.08
2023-03-20T02:36:34.185Z,100213.25
2023-03-20T02:40:48.315Z,100210.15
2023-03-20T02:45:04.419Z,100209.64
2023-03-20T02:49:22.718Z,100208.27
2023-03-20T02:53:39.239Z,100208.45
2023-03-20T02:57:54.834Z,100206.98
2023-03-20T03:02:08.112Z,100202.48
2023-03-20T03:06:23.251Z,100202.01
2023-03-20T03:10:34.704Z,100199.41
2023-03-20T03:14:44.824Z,100198.81
2023-03-20T03:18:56.225Z,100194.77
2023-03-20T03:23:05.007Z,100192.08
2023-03-20T03:27:17.587Z,100196.48
2023-03-20T03:31:28.095Z,100197.98
2023-03-20T03:35:36.624Z,100197.63
2023-03-20T03:39:50.330Z,100192.59
2023-03-20T03:44:06.256Z,100197.89
2023-03-20T03:48:17.828Z,100197.27
2023-03-20T03:52:27.833Z,100195.61
2023-03-20T03:56:38.727Z,100198.06
2023-03-20T04:00:48.684Z,100197.86
2023-03-20T04:04:58.337Z,100201.33
2023-03-20T04:09:07.168Z,100206.36
2023-03-20T04:13:18.803Z,100208.11
2023-03-20T04:17:27.004Z,100207.95
2023-03-20T04:21:34.650Z,100208.80
2023-03-20T04:25:42.470Z,100204.63
2023-03-20T04:29:50.996Z,100202.89
2023-03-20T04:33:58.914Z,100204.50
2023-03-20T04:38:09.411Z,100199.67
2023-03-20T04:42:17.853Z,100201.52
2023-03-20T04:46:25.753Z,100202.33
2023-03-20T04:50:35.326Z,100199.42
2023-03-20T04:54:43.691Z,100204.41
2023-03-20T04:58:51.634Z,100208.67
2023-03-20T05:02:59.099Z,100208.59
2023-03-20T05:07:07.977Z,100210.52
2023-03-20T05:11:15.658Z,100211.69
2023-03-20T05:15:23.349Z,100212.08
2023-03-20T05:19:31.884Z,100215.90
2023-03-20T05:23:40.345Z,100214.82
2023-03-20T05:27:49.480Z,100220.11
2023-03-20T05:31:57.469Z,100224.08
2023-03-20T05:36:05.737Z,100222.17
2023-03-20T05:40:16.561Z,100223.40
2023-03-20T05:44:32.382Z,100227.30
2023-03-20T05:48:46.794Z,100230.98
2023-03-20T05:53:01.586Z,100233.34
2023-03-20T05:57:11.542Z,100231.17
2023-03-20T06:01:27.172Z,100239.15
2023-03-20T06:05:35.426Z,100240.92
2023-03-20T06:09:45.683Z,100246.48
2023-03-20T06:13:58.732Z,100246.61
2023-03-20T06:18:10.045Z,100250.48
2023-03-20T06:22:30.266Z,100253.36
2023-03-20T06:26:44.155Z,100252.13
2023-03-20T06:31:01.993Z,100257.48
2023-03-20T06:35:18.180Z,100259.25
2023-03-20T06:39:29.829Z,100258.19
2023-03-20T06:43:44.308Z,100258.60
2023-03-20T06:47:51.811Z,100259.65
2023-03-20T06:52:04.459Z,100255.98
2023-03-20T06:56:18.185Z,100257.43
2023-03-20T07:00:33.196Z,100258.14
2023-03-20T07:04:42.986Z,100259.84
2023-03-20T07:08:56.703Z,100262.27
2023-03-20T07:13:07.793Z,100271.61
2023-03-20T07:17:18.796Z,100273.30
2023-03-20T07:21:29.313Z,100275.39
2023-03-20T07:25:45.532Z,100276.55
2023-03-20T07:30:01.643Z,100275.27
2023-03-20T07:34:12.479Z,100276.90
2023-03-20T07:38:27.683Z,100274.35
2023-03-20T07:42:39.984Z,100271.09
2023-03-20T07:46:48.201Z,100275.17
2023-03-20T07:51:03.265Z,100281.20
2023-03-20T07:55:18.867Z,100290.48
2023-03-20T07:59:36.337Z,100289.06
2023-03-20T08:03:45.043Z,100292.29
2023-03-20T08:08:00.410Z,100291.94
2023-03-20T08:12:12.410Z,100291.34
2023-03-20T08:16:26.177Z,100292.37
2023-03-20T08:20:37.813Z,100291.81
2023-03-20T08:24:51.995Z,100295.04
2023-03-20T08:29:02.609Z,100295.81
2023-03-20T08:33:11.015Z,100297.21
2023-03-20T08:37:31.082Z,100300.48
2023-03-20T08:41:41.984Z,100306.77
2023-03-20T08:45:49.984Z,100304.08
2023-03-20T08:50:08.913Z,100304.20
2023-03-20T08:54:18.617Z,100302.90
2023-03-20T08:58:29.283Z,100307.50
2023-03-20T09:02:44.327Z,100306.41
2023-03-20T09:06:55.509Z,100312.88
2023-03-20T09:11:07.417Z,100315.04
2023-03-20T09:15:20.658Z,100313.70
2023-03-20T09:19:30.631Z,100315.73
2023-03-20T09:23:49.708Z,100313.32
2023-03-20T09:28:02.443Z,100312.90
2023-03-20T09:32:19.728Z,100312.30
2023-03-20T09:36:34.712Z,100305.48
2023-03-20T09:40:53.593Z,100302.23
2023-03-20T09:45:09.138Z,100301.12
2023-03-20T09:49:29.922Z,100300.65
2023-03-20T09:53:44.741Z,100298.29
2023-03-20T09:58:02.919Z,100301.48
2023-03-20T10:02:16.861Z,100301.77
2023-03-20T10:06:29.627Z,100301.81
2023-03-20T10:10:47.884Z,100301.45
2023-03-20T10:15:07.771Z,100292.45
2023-03-20T10:19:25.217Z,100288.05
2023-03-20T10:23:38.598Z,100281.98
2023-03-20T10:27:53.908Z,100276.76
2023-03-20T10:32:07.551Z,100277.91
2023-03-20T10:36:26.655Z,100266.61
2023-03-20T10:40:42.686Z,100261.04
2023-03-20T10:44:57.155Z,100261.55
2023-03-20T10:49:12.950Z,100260.05
2023-03-20T10:53:30.327Z,100256.13
2023-03-20T10:57:43.234Z,100249.69
2023-03-20T11:02:00.414Z,100251.23
2023-03-20T11:06:19.206Z,100252.68
2023-03-20T11:10:39.377Z,100253.11
2023-03-20T11:14:58.300Z,100249.05
2023-03-20T11:19:15.035Z,100251.55
2023-03-20T11:23:28.563Z,100251.86
2023-03-20T11:27:38.432Z,100250.08
2023-03-20T11:31:49.477Z,100249.91
2023-03-20T11:36:02.465Z,100242.69
2023-03-20T11:40:20.257Z,100246.11
2023-03-20T11:44:37.100Z,100242.98
2023-03-20T11:48:54.675Z,100241.85
2023-03-20T11:53:04.946Z,100241.65
2023-03-20T11:57:31.616Z,100233.48
2023-03-20T12:01:47.337Z,100230.21
2023-03-20T12:05:55.896Z,100228.02
2023-03-20T12:10:06.280Z,100224.74
2023-03-20T12:14:22.315Z,100220.04
2023-03-20T12:18:36.751Z,100208.09
2023-03-20T12:22:53.272Z,100206.14
2023-03-20T12:27:15.793Z,100208.79
2023-03-20T12:31:28.478Z,100201.05
2023-03-20T12:35:38.225Z,100193.73
2023-03-20T12:39:51.617Z,100193.14
2023-03-20T12:44:31.690Z,100188.60
2023-03-20T12:48:48.756Z,100183.70
2023-03-20T12:53:06.064Z,100180.79
2023-03-20T12:57:20.604Z,100177.51
2023-03-20T13:01:35.140Z,100171.00
2023-03-20T13:05:47.761Z,100168.20
2023-03-20T13:10:05.806Z,100166.39
2023-03-20T13:14:16.134Z,100173.08
2023-03-20T13:18:30.844Z,100175.45
2023-03-20T13:22:51.672Z,100166.79
2023-03-20T13:27:06.005Z,100168.00
2023-03-20T13:31:26.494Z,100162.61
2023-03-20T13:35:48.406Z,100161.98
2023-03-20T13:40:05.950Z,100162.75
2023-03-20T13:44:15.467Z,100164.70
2023-03-20T13:48:29.330Z,100164.91
2023-03-20T13:52:41.976Z,100166.01
2023-03-20T13:56:58.177Z,100170.70
2023-03-20T14:01:09.758Z,100174.53
2023-03-20T14:05:20.292Z,100177.89
2023-03-20T14:09:37.114Z,100182.34
2023-03-20T14:13:49.117Z,100189.66
2023-03-20T14:17:57.760Z,100189.73
2023-03-20T14:22:06.139Z,100196.92
2023-03-20T14:26:28.353Z,100197.98
2023-03-20T14:30:44.356Z,100197.80
2023-03-20T14:35:02.131Z,100206.19
2023-03-20T14:39:16.864Z,100203.22
2023-03-20T14:43:35.684Z,100195.92
2023-03-20T14:47:51.127Z,100191.69
2023-03-20T14:52:02.629Z,100192.73
2023-03-20T14:56:13.729Z,100197.77
2023-03-20T15:00:26.224Z,100187.40
2023-03-20T15:04:39.437Z,100185.02
2023-03-20T15:08:51.382Z,100188.13
2023-03-20T15:13:00.431Z,100184.41
2023-03-20T15:17:08.265Z,100175.06
2023-03-20T15:21:21.418Z,100181.73
2023-03-20T15:25:32.851Z,100179.75
2023-03-20T15:29:40.295Z,100179.16
2023-03-20T15:33:49.384Z,100184.42
2023-03-20T15:37:59.124Z,100192.56
2023-03-20T15:42:07.606Z,100197.41
2023-03-20T15:46:18.253Z,100193.94
2023-03-20T15:50:27.269Z,100196.89
2023-03-20T15:54:37.516Z,100203.26
2023-03-20T15:58:47.140Z,100210.36
2023-03-20T16:02:56.432Z,100212.81
2023-03-20T16:07:04.486Z,100219.31
2023-03-20T16:11:17.317Z,100224.69
2023-03-20T16:15:27.894Z,100226.02
2023-03-20T16:19:35.626Z,100230.14
2023-03-20T16:23:46.419Z,100231.30
2023-03-20T16:27:55.176Z,100236.82
2023-03-20T16:32:07.208Z,100238.15
2023-03-20T16:36:21.168Z,100233.64
2023-03-20T16:40:35.967Z,100231.98
2023-03-20T16:44:44.724Z,100235.79
2023-03-20T16:48:53.678Z,100233.46
2023-03-20T16:53:03.444Z,100238.41
2023-03-20T16:57:17.731Z,100239.41
2023-03-20T17:01:30.370Z,100247.59
2023-03-20T17:05:49.373Z,100249.62
2023-03-20T17:10:00.043Z,100251.36
2023-03-20T17:14:16.466Z,100256.23
2023-03-20T17:18:26.043Z,100257.68
2023-03-20T17:22:36.920Z,100261.81
2023-03-20T17:26:47.174Z,100262.52
2023-03-20T17:30:55.122Z,100263.54
2023-03-20T17:35:03.556Z,100264.86
2023-03-20T17:39:19.064Z,100264.84
2023-03-20T17:43:27.536Z,100270.95
2023-03-20T17:47:35.484Z,100274.99
2023-03-20T17:51:44.142Z,100273.55
2023-03-20T17:55:52.586Z,100274.89
2023-03-20T18:00:01.202Z,100278.54
2023-03-20T18:04:09.894Z,100282.09
2023-03-20T18:08:21.476Z,100286.50
2023-03-20T18:12:29.750Z,100290.04
2023-03-20T18:16:37.677Z,100290.89
2023-03-20T18:20:45.896Z,100291.30
2023-03-20T18:24:54.370Z,100294.52
2023-03-20T18:29:02.384Z,100302.65
2023-03-20T18:33:10.381Z,100301.16
2023-03-20T18:37:22.179Z,100301.15
2023-03-20T18:41:30.286Z,100302.32
2023-03-20T18:45:39.508Z,100299.91
2023-03-20T18:49:47.212Z,100297.64
2023-03-20T18:53:56.740Z,100291.65
2023-03-20T18:58:08.239Z,100291.41
2023-03-20T19:02:16.362Z,100288.23
2023-03-20T19:06:25.867Z,100288.10
2023-03-20T19:10:36.524Z,100293.05
2023-03-20T19:14:48.569Z,100289.04
2023-03-20T19:18:59.841Z,100289.47
2023-03-20T19:23:12.225Z,100290.05
2023-03-20T19:27:22.678Z,100288.86
2023-03-20T19:31:32.130Z,100288.67
2023-03-20T19:36:11.219Z,100285.98
2023-03-20T19:40:15.727Z,100289.29
2023-03-20T19:44:30.181Z,100291.42
2023-03-20T19:48:49.693Z,100293.58
2023-03-20T19:53:00.299Z,100295.32
2023-03-20T19:57:11.434Z,100305.19
2023-03-20T20:01:24.156Z,100304.84
2023-03-20T20:05:33.890Z,100305.59
2023-03-20T20:09:43.669Z,100309.09
2023-03-20T20:14:05.768Z,100310.58
2023-03-20T20:18:19.464Z,100311.00
2023-03-20T20:22:27.913Z,100309.41
2023-03-20T20:26:53.428Z,100307.58
2023-03-20T20:31:03.294Z,100305.48
2023-03-20T20:35:47.456Z,100303.44
2023-03-20T20:39:50.949Z,100302.02
2023-03-20T20:44:15.517Z,100292.32
2023-03-20T20:48:24.899Z,100290.52
2023-03-20T20:52:35.880Z,100283.10
2023-03-20T20:56:44.070Z,100282.33
2023-03-20T21:00:58.804Z,100281.41
2023-03-20T21:05:08.078Z,100281.29
2023-03-20T21:09:25.818Z,100286.38
2023-03-20T21:13:38.404Z,100285.82
2023-03-20T21:18:00.507Z,100286.39
2023-03-20T21:22:18.011Z,100282.36
2023-03-20T21:26:28.478Z,100283.32
2023-03-20T21:30:43.217Z,100284.55
2023-03-20T21:35:03.959Z,100286.95
2023-03-20T21:39:21.175Z,100288.17
2023-03-20T21:43:34.670Z,100289.61
2023-03-20T21:53:06.744Z,100284.42
2023-03-20T22:06:33.274Z,100279.73
2023-03-20T22:15:29.093Z,100272.92
2023-03-20T22:20:09.133Z,100274.46
2023-03-20T22:24:37.925Z,100268.67
2023-03-20T22:47:28.000Z,100274.86
2023-03-20T22:51:57.349Z,100270.34
2023-03-20T22:56:15.902Z,100271.62
2023-03-20T23:00:29.971Z,100266.50
2023-03-20T23:04:42.907Z,100262.10
2023-03-20T23:08:55.526Z,100259.80
2023-03-20T23:13:18.975Z,100262.73
2023-03-20T23:17:27.393Z,100264.39
2023-03-20T23:21:35.306Z,100268.69
2023-03-20T23:25:43.054Z,100266.98
2023-03-20T23:29:55.299Z,100267.80
2023-03-20T23:34:02.819Z,100270.24
2023-03-20T23:38:17.733Z,100266.06
2023-03-20T23:42:30.737Z,100260.00
2023-03-20T23:46:41.824Z,100258.46
2023-03-20T23:50:58.093Z,100257.80
2023-03-20T23:55:09.513Z,100248.56
2023-03-20T23:59:22.468Z,100244.76
